Tuesday, August 30, 2016
15:01 UTC
  |  Log In   |  Register Free
Airport Search:

Hobart Regional Airport
(KHBR)

Hobart Regional Airport Diagram
No Airport Diagram Available

FAA data valid effective Jul 21 2016 - Sep 15 2016 (unless otherwise noted).

 
 
 
 
 
 
 
 
 
 
 
 
 
 
Current Aviation Weather for KHBR

Weather Summary


The most recent METAR observation for HBR was updated at: 12:53 UTC
METAR for HBR is not available. Closest METAR is for
METAR

METAR KHBR 301453Z 35006KT 5SM BR FEW004 23/22 A3017 RMK AO2 SLP201 60125 T02280217 51012

METAR KHBR 301440Z 35005KT 5SM BR FEW004 SCT120 23/22 A3017 RMK AO2 LTG DSNT W T02280217

METAR KHBR 301413Z 34005KT 5SM BR BKN003 BKN120 22/22 A3017 RMK AO2 LTG DSNT SW-NW T02220217

METAR KHBR 301353Z 32006KT 6SM VCTS BR FEW003 SCT070 BKN120 23/22 A3017 RMK AO2 LTG DSNT SW AND W RAE53 TSE14 SLP199 P0035 T02280217

METAR KHBR 301332Z 32007KT 3SM VCTS -RA BR FEW002 BKN048 OVC110 22/21 A3016 RMK AO2 LTG DSNT SW TSE14 P0035 T02220211

METAR KHBR 301324Z 31005KT 2 1/2SM VCTS -RA BR FEW002 BKN075 OVC110 22/22 A3016 RMK AO2 LTG DSNT SW TSE14 P0035 T02220217

METAR KHBR 301314Z 33005KT 1 3/4SM VCTS RA BR BKN027 BKN075 OVC090 22/21 A3015 RMK AO2 TSE14 P0034 T02220211

METAR KHBR 301253Z 09009KT 1/4SM +TSRA FG BKN016 OVC032 22/21 A3016 RMK AO2 LTG DSNT SW RAB12 TSB43 SLP194 P0090 T02170206

METAR KHBR 301243Z 08010KT 3/4SM +TSRA BR BKN028 BKN036 OVC060 22/21 A3016 RMK AO2 LTG DSNT SW RAB12 TSB43 P0029 T02170206

METAR KHBR 301238Z 10005KT 1 3/4SM VCTS RA BR FEW017 BKN038 OVC060 22/21 A3016 RMK AO2 LTG DSNT E AND SW RAB12 P0015 T02170206

METAR KHBR 301218Z 06004KT 7SM VCTS -RA SCT037 SCT055 OVC100 22/21 A3015 RMK AO2 LTG DSNT SE RAB12 P0000 T02220206

METAR KAXS 301455Z 35004KT 10SM SCT033 SCT045 25/22 A3018 RMK AO2 60010 T02450218

METAR KCLK METAR not available

METAR KCSM 301453Z 02006KT 10SM BKN014 BKN034 OVC060 23/21 A3020 RMK AO2 SLP205 T02330206 51011

TAF for HBR is not available.
TAF

KHBR - TAF AMD KHBR 301250Z 3013/3112 04006KT P6SM SCT050 BKN120

KHBR - TEMPO 3013/3014 VRB15G25KT 1SM +TSRA BKN025CB OVC060

KHBR - FM301400 09006KT P6SM OVC100

KHBR - FM301600 06007KT P6SM OVC100 =

KCSM - TAF AMD KCSM 301438Z 3015/3112 06006KT P6SM VCSH SCT013 BKN040

KCSM - TEMPO 3015/3016 13010KT 2SM SHRA BKN013

KCSM - FM301600 04006KT P6SM SCT050 BKN120 =

KLTS - TAF AMD KLTS 301315Z 3013/3115 03006KT 8000 -SHRA BKN045 QNH3010INS

KLTS - TEMPO 3013/3014 6000 -TSRA BKN040CB

KLTS - BECMG 3013/3014 04006KT 9999 NSW SCT050 SCT100 QNH3007INS

KLTS - BECMG 3018/3019 08009KT 9000 -SHRA VCTS BKN050CB BKN120 QNH3003INS

KLTS - BECMG 3023/3024 12006KT 9999 NSW FEW030 QNH3004INS TX30/3021Z TN21/3013Z AMD 301315 =

GlobalAir.com is loading additional information.
 Current Weather at HBR
73.0 F° (22.8 C°)

Northwest winds at 6.9 mph
Pressure:
30.17 in
Humidity:
94%
Wind:
Northwest at 6.9 mph
Dew Point:
71.1 F° (21.7 C°)
Visibility:
6.00 mi
HBR NOAA Radar




Find All Airport Services Find A Hotel Find A Rental Car Find A Golf Course Find A Restaurant $100 Hamburger



Airport Weather Forecast for KHBR

Translated METAR for KHBR (1453 UTC)
METAR:
KHBR 301453Z AUTO Hobart Regional, Hobart, OK (KHBR). Aug 30, 1453Z, Automated. Mist, Wind from 350° at 6 knots, 5 statute miles visibility, Few clouds at 400 feet, Temperature 23°C, Dewpoint 22°C, Altimeter is 30.17. Remarks: automated station with precipitation discriminator sea level pressure 1020.1 hectopascals 1.25 inches precipitation (water equivalent) past 3 hours hourly temp 22.8°C dewpoint 21.7°C 3-hour atmospheric pressure increasing, then steady, or increasing then increasing more slowly by 1.2 hectopascals
Conditions at:
KHBR (Hobart Rgnl, OK) observed 1453 UTC 30 August 2016
Temperature:
73.0 F° (22.8 C°)
Dewpoint:
not reported - refer to area weather report
Pressure:
30.17 Hg
Winds:
not reported
Visibility:
6.00
Ceiling:
at least 12,000 feet AGL
Clouds:
not reported - refer to area weather report
Remarks:
site is un-manned

Translated TAF for TAF for HBR is not available. Refer to local area forecast.
FBO's on the Field
FBO Company Facility Photos Services Transportation Aviation Fuel Prices: Prices include tax
Catering Weather Repair Courtesy Rental Type 100LL JetA JetA+ MOGAS 8087
 
City of Hobart

Currently rated 5 by 1 person
FS:Phillips 66
Last Updated: Aug-15
Login to update fuel prices
SS:
Contact City of HobartMore FBO Information
 
Add another FBO Facility Photos Catering Weather Repair Courtesy Rental Type 100LL JetA JetA+ MOGAS 8087
Services Transportation Aviation Fuel Prices: Prices include tax


model-print
model-print
model-print
model-print